This is the latest recevied weather packets stored in our database for station/object LA9UTA-13. If no packets are shown the sender has not sent any weather packets the latest 10 day(s).
| Time | Temp. | Humidity | Pressure | Rain* | Wind** | Luminosity | Snow |
|---|---|---|---|---|---|---|---|
| 1777814283 | 9.44° C | 62% | 1010.3 hPa | 0 mm | - | 148 W/m² | - |
| 1777813083 | 8.89° C | 64% | 1010.3 hPa | 0 mm | - | 179 W/m² | - |
| 1777811882 | 9.44° C | 62% | 1011.4 hPa | 0 mm | - | 177 W/m² | - |
| 1777809482 | 9.44° C | 62% | 1011.4 hPa | 0 mm | - | 535 W/m² | - |
| 1777807082 | 8.89° C | 62% | 1011.5 hPa | 0 mm | - | 672 W/m² | - |
| 1777805882 | 7.78° C | 65% | 1011.6 hPa | 0 mm | - | 517 W/m² | - |
| 1777804728 | 7.78° C | 63% | 1011.5 hPa | 0 mm | - | 331 W/m² | - |
| 1777804682 | 7.78° C | 63% | 1011.5 hPa | 0 mm | - | 331 W/m² | - |
| 1777803482 | 6.67° C | 67% | 1012.7 hPa | 0 mm | - | 288 W/m² | - |
| 1777802282 | 6.11° C | 68% | 1012.7 hPa | 0 mm | - | 208 W/m² | - |
| 1777801082 | 6.11° C | 67% | 1012.7 hPa | 0 mm | - | 202 W/m² | - |
| 1777799882 | 6.11° C | 67% | 1012.7 hPa | 0 mm | - | 167 W/m² | - |
| 1777798682 | 6.11° C | 66% | 1011.7 hPa | 0 mm | - | 139 W/m² | - |
| 1777797482 | 6.11° C | 65% | 1012.7 hPa | 0 mm | - | 198 W/m² | - |
| 1777797040 | 6.11° C | 64% | 1011.7 hPa | 0 mm | - | 199 W/m² | - |
| 1777796282 | 6.11° C | 64% | 1011.7 hPa | 0 mm | - | 199 W/m² | - |
| 1777795082 | 5.56° C | 64% | 1011.8 hPa | 0 mm | - | 104 W/m² | - |
| 1777793882 | 5.56° C | 64% | 1011.8 hPa | 0 mm | - | 74 W/m² | - |
| 1777792682 | 5.56° C | 64% | 1011.8 hPa | 0 mm | - | 100 W/m² | - |
| 1777791483 | 5.56° C | 65% | 1011.8 hPa | 0 mm | - | 75 W/m² | - |
| 1777790282 | 5.56° C | 65% | 1011.8 hPa | 0 mm | - | 56 W/m² | - |
| 1777789082 | 5.56° C | 65% | 1011.8 hPa | 0 mm | - | 37 W/m² | - |
| 1777787883 | 5.56° C | 65% | 1011.8 hPa | 0 mm | - | 34 W/m² | - |
| 1777785482 | 5.56° C | 65% | 1011.8 hPa | 0 mm | - | 22 W/m² | - |
| 1777784282 | 5.56° C | 66% | 1010.7 hPa | 0 mm | - | 16 W/m² | - |
* Rain latest hour (hover to see other rain measurements)
** Current wind speed in m/s (hover to see current wind gust speed)